createdAt,value
2023-03-26T00:00:39.763Z,998.05
2023-03-26T00:01:39.772Z,998.03
2023-03-26T00:02:39.809Z,997.99
2023-03-26T00:03:39.700Z,998.03
2023-03-26T00:04:39.712Z,997.98
2023-03-26T00:05:39.731Z,998.10
2023-03-26T00:06:40.045Z,998.08
2023-03-26T00:07:39.659Z,998.17
2023-03-26T00:08:39.669Z,998.14
2023-03-26T00:09:39.642Z,998.15
2023-03-26T00:10:39.629Z,998.19
2023-03-26T00:11:39.616Z,998.18
2023-03-26T00:12:39.605Z,998.15
2023-03-26T00:13:39.616Z,998.21
2023-03-26T00:14:39.579Z,998.13
2023-03-26T00:15:39.578Z,998.13
2023-03-26T00:16:39.588Z,998.15
2023-03-26T00:17:39.619Z,998.16
2023-03-26T00:18:39.534Z,998.14
2023-03-26T00:19:39.530Z,998.14
2023-03-26T00:20:39.539Z,998.20
2023-03-26T00:21:39.506Z,998.17
2023-03-26T00:22:39.518Z,998.22
2023-03-26T00:23:39.495Z,998.17
2023-03-26T00:24:39.472Z,998.17
2023-03-26T00:25:39.465Z,998.21
2023-03-26T00:26:39.451Z,998.21
2023-03-26T00:27:39.469Z,998.17
2023-03-26T00:28:39.438Z,998.14
2023-03-26T00:29:39.452Z,998.14
2023-03-26T00:30:39.446Z,998.23
2023-03-26T00:31:39.404Z,998.19
2023-03-26T00:32:39.433Z,998.26
2023-03-26T00:33:39.384Z,998.09
2023-03-26T00:34:39.389Z,998.24
2023-03-26T00:35:39.389Z,998.18
2023-03-26T00:36:39.363Z,998.17
2023-03-26T00:37:39.340Z,998.21
2023-03-26T00:38:39.557Z,998.12
2023-03-26T00:39:39.342Z,998.20
2023-03-26T00:40:39.308Z,998.20
2023-03-26T00:41:39.311Z,998.10
2023-03-26T00:42:39.282Z,998.13
2023-03-26T00:43:39.278Z,998.21
2023-03-26T00:44:39.282Z,998.16
2023-03-26T00:45:39.267Z,998.13
2023-03-26T00:46:39.314Z,998.18
2023-03-26T00:47:39.276Z,998.17
2023-03-26T00:48:44.898Z,998.19
2023-03-26T00:49:40.212Z,998.19
2023-03-26T00:50:39.196Z,998.20
2023-03-26T00:51:39.499Z,998.25
2023-03-26T00:52:39.207Z,998.23
2023-03-26T00:53:39.200Z,998.19
2023-03-26T00:54:39.162Z,998.17
2023-03-26T00:55:39.168Z,998.15
2023-03-26T00:56:39.191Z,998.18
2023-03-26T00:57:39.161Z,998.24
2023-03-26T00:58:39.123Z,998.19
2023-03-26T00:59:39.150Z,998.25
2023-03-26T01:00:39.089Z,998.23
2023-03-26T01:01:39.113Z,998.25
2023-03-26T01:02:39.122Z,998.20
2023-03-26T01:03:39.169Z,998.14
2023-03-26T01:04:39.230Z,998.18
2023-03-26T01:05:39.043Z,998.12
2023-03-26T01:06:39.025Z,998.10
2023-03-26T01:07:39.014Z,998.15
2023-03-26T01:08:39.071Z,998.22
2023-03-26T01:09:39.017Z,998.20
2023-03-26T01:10:38.974Z,998.19
2023-03-26T01:11:38.973Z,998.15
2023-03-26T01:12:38.959Z,998.21
2023-03-26T01:13:38.955Z,998.20
2023-03-26T01:14:38.991Z,998.26
2023-03-26T01:15:38.946Z,998.22
2023-03-26T01:16:38.915Z,998.24
2023-03-26T01:17:38.936Z,998.26
2023-03-26T01:18:38.890Z,998.27
2023-03-26T01:19:38.886Z,998.34
2023-03-26T01:20:38.908Z,998.35
2023-03-26T01:21:38.861Z,998.38
2023-03-26T01:22:38.855Z,998.32
2023-03-26T01:23:38.847Z,998.35
2023-03-26T01:24:38.860Z,998.28
2023-03-26T01:25:38.849Z,998.37
2023-03-26T01:26:38.811Z,998.42
2023-03-26T01:27:38.807Z,998.39
2023-03-26T01:28:38.786Z,998.46
2023-03-26T01:29:38.779Z,998.37
2023-03-26T01:30:38.830Z,998.40
2023-03-26T01:31:38.766Z,998.45
2023-03-26T01:32:38.839Z,998.40
2023-03-26T01:33:38.816Z,998.46
2023-03-26T01:34:38.721Z,998.47
2023-03-26T01:35:38.868Z,998.46
2023-03-26T01:36:38.698Z,998.44
2023-03-26T01:37:38.693Z,998.39
2023-03-26T01:38:38.680Z,998.52
2023-03-26T01:39:38.673Z,998.53
2023-03-26T01:40:38.857Z,998.50
2023-03-26T01:41:38.651Z,998.54
2023-03-26T01:42:38.637Z,998.40
2023-03-26T01:43:38.628Z,998.49
2023-03-26T01:44:38.632Z,998.50
2023-03-26T01:45:38.634Z,998.44
2023-03-26T01:46:38.628Z,998.47
2023-03-26T01:47:38.612Z,998.47
2023-03-26T01:48:38.586Z,998.43
2023-03-26T01:49:38.561Z,998.46
2023-03-26T01:50:38.548Z,998.43
2023-03-26T01:51:38.538Z,998.47
2023-03-26T01:52:38.547Z,998.48
2023-03-26T01:53:38.527Z,998.49
2023-03-26T01:54:38.506Z,998.49
2023-03-26T01:55:38.502Z,998.36
2023-03-26T01:56:38.556Z,998.41
2023-03-26T01:57:38.498Z,998.45
2023-03-26T01:58:38.462Z,998.45
2023-03-26T01:59:38.456Z,998.44
2023-03-26T02:00:38.443Z,998.42
2023-03-26T02:01:38.503Z,998.44
2023-03-26T02:02:38.600Z,998.45
2023-03-26T02:03:38.440Z,998.39
2023-03-26T02:04:38.399Z,998.45
2023-03-26T02:05:38.386Z,998.42
2023-03-26T02:06:38.373Z,998.40
2023-03-26T02:07:38.406Z,998.40
2023-03-26T02:08:38.360Z,998.39
2023-03-26T02:09:38.344Z,998.45
2023-03-26T02:10:38.325Z,998.42
2023-03-26T02:11:38.348Z,998.39
2023-03-26T02:12:38.334Z,998.38
2023-03-26T02:13:38.298Z,998.44
2023-03-26T02:14:38.287Z,998.31
2023-03-26T02:15:38.300Z,998.35
2023-03-26T02:16:38.325Z,998.30
2023-03-26T02:17:38.317Z,998.30
2023-03-26T02:18:38.244Z,998.32
2023-03-26T02:19:38.238Z,998.33
2023-03-26T02:20:38.249Z,998.32
2023-03-26T02:21:38.221Z,998.35
2023-03-26T02:22:38.200Z,998.34
2023-03-26T02:23:38.191Z,998.30
2023-03-26T02:24:38.178Z,998.30
2023-03-26T02:25:38.190Z,998.33
2023-03-26T02:26:38.161Z,998.42
2023-03-26T02:27:38.149Z,998.38
2023-03-26T02:28:38.157Z,998.42
2023-03-26T02:29:38.130Z,998.42
2023-03-26T02:30:38.131Z,998.41
2023-03-26T02:31:38.168Z,998.38
2023-03-26T02:32:38.143Z,998.41
2023-03-26T02:33:38.136Z,998.32
2023-03-26T02:34:38.067Z,998.36
2023-03-26T02:35:38.092Z,998.41
2023-03-26T02:36:38.141Z,998.40
2023-03-26T02:37:38.052Z,998.40
2023-03-26T02:38:38.029Z,998.43
2023-03-26T02:39:38.021Z,998.46
2023-03-26T02:40:38.012Z,998.46
2023-03-26T02:41:38.000Z,998.48
2023-03-26T02:42:38.009Z,998.50
2023-03-26T02:43:37.975Z,998.56
2023-03-26T02:44:37.979Z,998.57
2023-03-26T02:45:38.031Z,998.62
2023-03-26T02:46:37.957Z,998.64
2023-03-26T02:47:38.000Z,998.62
2023-03-26T02:48:37.925Z,998.68
2023-03-26T02:49:37.914Z,998.62
2023-03-26T02:50:37.894Z,998.61
2023-03-26T02:51:37.928Z,998.68
2023-03-26T02:52:37.882Z,998.66
2023-03-26T02:53:37.875Z,998.61
2023-03-26T02:54:37.871Z,998.65
2023-03-26T02:55:37.841Z,998.61
2023-03-26T02:56:37.889Z,998.55
2023-03-26T02:57:37.851Z,998.58
2023-03-26T02:58:37.812Z,998.60
2023-03-26T02:59:37.815Z,998.64
2023-03-26T03:00:37.816Z,998.59
2023-03-26T03:01:37.820Z,998.56
2023-03-26T03:02:37.814Z,998.58
2023-03-26T03:03:37.784Z,998.65
2023-03-26T03:04:37.739Z,998.66
2023-03-26T03:05:37.737Z,998.65
2023-03-26T03:06:37.750Z,998.63
2023-03-26T03:07:37.711Z,998.65
2023-03-26T03:08:37.723Z,998.70
2023-03-26T03:09:37.690Z,998.65
2023-03-26T03:10:37.719Z,998.72
2023-03-26T03:11:37.677Z,998.69
2023-03-26T03:12:37.682Z,998.70
2023-03-26T03:13:37.666Z,998.64
2023-03-26T03:14:37.640Z,998.71
2023-03-26T03:15:37.620Z,998.75
2023-03-26T03:16:37.662Z,998.69
2023-03-26T03:17:37.681Z,998.74
2023-03-26T03:18:37.627Z,998.74
2023-03-26T03:19:37.578Z,998.72
2023-03-26T03:20:37.568Z,998.72
2023-03-26T03:21:37.572Z,998.68
2023-03-26T03:22:37.580Z,998.79
2023-03-26T03:23:37.534Z,998.71
2023-03-26T03:24:37.540Z,998.74
2023-03-26T03:25:37.523Z,998.74
2023-03-26T03:26:37.512Z,998.74
2023-03-26T03:27:37.505Z,998.79
2023-03-26T03:28:37.506Z,998.76
2023-03-26T03:29:37.474Z,998.82
2023-03-26T03:30:37.470Z,998.73
2023-03-26T03:31:37.458Z,998.79
2023-03-26T03:32:37.500Z,998.79
2023-03-26T03:33:37.447Z,998.79
2023-03-26T03:34:37.423Z,998.83
2023-03-26T03:35:37.450Z,998.75
2023-03-26T03:36:37.409Z,998.81
2023-03-26T03:37:37.386Z,998.89
2023-03-26T03:38:37.401Z,998.83
2023-03-26T03:39:37.362Z,998.86
2023-03-26T03:40:37.367Z,998.91
2023-03-26T03:41:37.359Z,998.94
2023-03-26T03:42:37.334Z,998.92
2023-03-26T03:43:37.355Z,998.94
2023-03-26T03:44:37.314Z,998.97
2023-03-26T03:45:37.303Z,998.92
2023-03-26T03:46:37.375Z,998.92
2023-03-26T03:47:37.293Z,998.93
2023-03-26T03:48:37.298Z,998.88
2023-03-26T03:49:37.275Z,998.90
2023-03-26T03:50:37.275Z,998.94
2023-03-26T03:51:37.240Z,998.91
2023-03-26T03:52:37.235Z,998.88
2023-03-26T03:53:37.424Z,999.00
2023-03-26T03:54:37.234Z,998.91
2023-03-26T03:55:37.202Z,998.93
2023-03-26T03:56:37.202Z,998.98
2023-03-26T03:57:37.168Z,998.90
2023-03-26T03:58:37.157Z,998.94
2023-03-26T03:59:37.164Z,998.96
2023-03-26T04:00:37.137Z,998.92
2023-03-26T04:01:37.124Z,998.96
2023-03-26T04:02:37.158Z,998.96
2023-03-26T04:03:37.208Z,998.94
2023-03-26T04:04:37.160Z,998.96
2023-03-26T04:05:37.081Z,998.94
2023-03-26T04:06:37.071Z,998.95
2023-03-26T04:07:37.084Z,998.92
2023-03-26T04:08:37.058Z,998.95
2023-03-26T04:09:37.057Z,998.98
2023-03-26T04:10:37.022Z,999.00
2023-03-26T04:11:37.021Z,999.02
2023-03-26T04:12:37.002Z,999.02
2023-03-26T04:13:37.010Z,998.96
2023-03-26T04:14:36.990Z,999.04
2023-03-26T04:15:37.056Z,999.08
2023-03-26T04:16:36.990Z,999.00
2023-03-26T04:17:36.961Z,999.02
2023-03-26T04:18:36.947Z,998.99
2023-03-26T04:19:36.926Z,999.03
2023-03-26T04:20:36.958Z,999.07
2023-03-26T04:21:36.928Z,999.07
2023-03-26T04:22:36.901Z,999.03
2023-03-26T04:23:36.900Z,999.00
2023-03-26T04:24:36.879Z,999.10
2023-03-26T04:25:36.866Z,999.04
2023-03-26T04:26:36.883Z,999.06
2023-03-26T04:27:36.926Z,999.08
2023-03-26T04:28:36.831Z,999.07
2023-03-26T04:29:36.815Z,999.05
2023-03-26T04:30:36.813Z,999.00
2023-03-26T04:31:36.822Z,998.96
2023-03-26T04:32:36.807Z,999.05
2023-03-26T04:33:36.780Z,999.00
2023-03-26T04:34:36.760Z,999.02
2023-03-26T04:35:36.788Z,999.00
2023-03-26T04:36:36.796Z,999.02
2023-03-26T04:37:36.730Z,999.02
2023-03-26T04:38:36.746Z,999.00
2023-03-26T04:39:36.715Z,998.95
2023-03-26T04:40:36.697Z,999.00
2023-03-26T04:41:36.708Z,998.97
2023-03-26T04:42:36.680Z,998.98
2023-03-26T04:43:36.680Z,999.02
2023-03-26T04:44:36.655Z,999.02
2023-03-26T04:45:36.664Z,999.03
2023-03-26T04:46:36.723Z,999.02
2023-03-26T04:47:36.631Z,999.02
2023-03-26T04:48:36.638Z,999.05
2023-03-26T04:49:36.595Z,999.01
2023-03-26T04:50:36.624Z,999.00
2023-03-26T04:51:36.572Z,999.00
2023-03-26T04:52:36.602Z,999.00
2023-03-26T04:53:36.551Z,998.97
2023-03-26T04:54:36.548Z,999.10
2023-03-26T04:55:36.528Z,999.01
2023-03-26T04:56:36.589Z,998.99
2023-03-26T04:57:36.526Z,999.04
2023-03-26T04:58:36.523Z,999.04
2023-03-26T04:59:36.487Z,999.04
2023-03-26T05:00:36.506Z,999.07
2023-03-26T05:01:36.531Z,998.97
2023-03-26T05:02:36.493Z,999.04
2023-03-26T05:03:36.445Z,999.08
2023-03-26T05:04:36.604Z,999.07
2023-03-26T05:05:36.419Z,999.02
2023-03-26T05:06:36.415Z,999.06
2023-03-26T05:07:36.397Z,999.05
2023-03-26T05:08:36.417Z,999.03
2023-03-26T05:09:36.403Z,999.07
2023-03-26T05:10:36.369Z,998.99
2023-03-26T05:11:36.352Z,999.08
2023-03-26T05:12:36.367Z,999.04
2023-03-26T05:13:36.329Z,999.07
2023-03-26T05:14:36.357Z,999.14
2023-03-26T05:15:36.323Z,999.16
2023-03-26T05:16:36.348Z,999.12
2023-03-26T05:17:36.412Z,999.03
2023-03-26T05:18:36.283Z,999.07
2023-03-26T05:19:36.263Z,999.08
2023-03-26T05:20:36.281Z,999.11
2023-03-26T05:21:36.244Z,999.08
2023-03-26T05:22:38.085Z,999.12
2023-03-26T05:23:36.225Z,999.10
2023-03-26T05:24:36.233Z,999.15
2023-03-26T05:25:36.230Z,999.07
2023-03-26T05:26:36.203Z,999.03
2023-03-26T05:27:36.178Z,999.04
2023-03-26T05:28:36.168Z,999.05
2023-03-26T05:29:36.162Z,999.04
2023-03-26T05:30:36.173Z,999.02
2023-03-26T05:31:36.142Z,999.07
2023-03-26T05:32:36.158Z,999.03
2023-03-26T05:33:36.227Z,999.00
2023-03-26T05:34:36.103Z,999.08
2023-03-26T05:35:36.136Z,999.05
2023-03-26T05:36:36.087Z,999.03
2023-03-26T05:37:36.070Z,999.05
2023-03-26T05:38:36.070Z,999.09
2023-03-26T05:39:36.050Z,999.15
2023-03-26T05:40:36.126Z,999.10
2023-03-26T05:41:36.027Z,999.13
2023-03-26T05:42:36.023Z,999.12
2023-03-26T05:43:36.003Z,999.18
2023-03-26T05:44:36.003Z,999.17
2023-03-26T05:45:36.039Z,999.14
2023-03-26T05:46:36.064Z,999.16
2023-03-26T05:47:35.965Z,999.15
2023-03-26T05:48:35.984Z,999.23
2023-03-26T05:49:35.937Z,999.17
2023-03-26T05:50:35.946Z,999.11
2023-03-26T05:51:35.923Z,999.13
2023-03-26T05:52:35.944Z,999.19
2023-03-26T05:53:35.904Z,999.20
2023-03-26T05:54:35.893Z,999.18
2023-03-26T05:55:35.877Z,999.17
2023-03-26T05:56:35.901Z,999.17
2023-03-26T05:57:35.878Z,999.21
2023-03-26T05:58:35.849Z,999.16
2023-03-26T05:59:35.833Z,999.23
2023-03-26T06:00:35.828Z,999.24
2023-03-26T06:01:35.812Z,999.25
2023-03-26T06:02:35.832Z,999.20
2023-03-26T06:03:35.898Z,999.22
2023-03-26T06:04:35.878Z,999.24
2023-03-26T06:05:35.771Z,999.26
2023-03-26T06:06:35.768Z,999.28
2023-03-26T06:07:35.776Z,999.21
2023-03-26T06:08:35.737Z,999.38
2023-03-26T06:09:35.720Z,999.30
2023-03-26T06:10:35.716Z,999.33
2023-03-26T06:11:35.696Z,999.34
2023-03-26T06:12:35.718Z,999.33
2023-03-26T06:13:35.698Z,999.31
2023-03-26T06:14:35.689Z,999.26
2023-03-26T06:15:35.709Z,999.31
2023-03-26T06:16:35.694Z,999.32
2023-03-26T06:17:35.658Z,999.36
2023-03-26T06:18:35.662Z,999.39
2023-03-26T06:19:35.647Z,999.40
2023-03-26T06:20:35.603Z,999.35
2023-03-26T06:21:35.595Z,999.41
2023-03-26T06:22:35.599Z,999.36
2023-03-26T06:23:35.571Z,999.42
2023-03-26T06:24:35.559Z,999.47
2023-03-26T06:25:35.574Z,999.33
2023-03-26T06:26:35.534Z,999.47
2023-03-26T06:27:35.531Z,999.46
2023-03-26T06:28:35.565Z,999.42
2023-03-26T06:29:35.523Z,999.38
2023-03-26T06:30:35.529Z,999.48
2023-03-26T06:31:35.543Z,999.49
2023-03-26T06:32:35.516Z,999.42
2023-03-26T06:33:35.452Z,999.38
2023-03-26T06:34:35.460Z,999.46
2023-03-26T06:35:35.467Z,999.51
2023-03-26T06:36:35.456Z,999.44
2023-03-26T06:37:35.427Z,999.40
2023-03-26T06:38:35.450Z,999.40
2023-03-26T06:39:35.393Z,999.47
2023-03-26T06:40:35.416Z,999.44
2023-03-26T06:41:35.406Z,999.42
2023-03-26T06:43:08.900Z,999.41
2023-03-26T06:43:36.363Z,999.49
2023-03-26T06:44:35.396Z,999.47
2023-03-26T06:45:35.352Z,999.42
2023-03-26T06:46:35.366Z,999.43
2023-03-26T06:47:35.340Z,999.46
2023-03-26T06:48:35.298Z,999.46
2023-03-26T06:49:35.290Z,999.42
2023-03-26T06:50:35.306Z,999.45
2023-03-26T06:51:35.271Z,999.49
2023-03-26T06:52:35.259Z,999.48
2023-03-26T06:53:35.250Z,999.43
2023-03-26T06:54:35.236Z,999.45
2023-03-26T06:55:35.260Z,999.45
2023-03-26T06:56:35.247Z,999.42
2023-03-26T06:57:35.201Z,999.48
2023-03-26T06:58:35.188Z,999.51
2023-03-26T06:59:35.178Z,999.41
2023-03-26T07:00:35.236Z,999.50
2023-03-26T07:01:35.213Z,999.47
2023-03-26T07:02:35.160Z,999.46
2023-03-26T07:03:35.184Z,999.45
2023-03-26T07:04:35.123Z,999.50
2023-03-26T07:05:35.115Z,999.48
2023-03-26T07:06:35.117Z,999.38
2023-03-26T07:07:35.099Z,999.39
2023-03-26T07:08:36.091Z,999.50
2023-03-26T07:09:35.073Z,999.48
2023-03-26T07:10:35.064Z,999.50
2023-03-26T07:11:35.077Z,999.55
2023-03-26T07:12:35.035Z,999.42
2023-03-26T07:13:35.060Z,999.43
2023-03-26T07:14:35.012Z,999.45
2023-03-26T07:15:35.016Z,999.47
2023-03-26T07:16:35.130Z,999.40
2023-03-26T07:17:35.005Z,999.49
2023-03-26T07:18:34.980Z,999.50
2023-03-26T07:19:34.971Z,999.45
2023-03-26T07:20:34.976Z,999.46
2023-03-26T07:21:34.981Z,999.43
2023-03-26T07:22:34.934Z,999.39
2023-03-26T07:23:34.923Z,999.42
2023-03-26T07:24:34.981Z,999.40
2023-03-26T07:25:34.907Z,999.44
2023-03-26T07:26:34.928Z,999.39
2023-03-26T07:27:34.872Z,999.39
2023-03-26T07:28:34.880Z,999.37
2023-03-26T07:29:34.874Z,999.37
2023-03-26T07:30:34.839Z,999.36
2023-03-26T07:31:34.977Z,999.39
2023-03-26T07:32:34.882Z,999.33
2023-03-26T07:33:34.832Z,999.37
2023-03-26T07:34:34.803Z,999.37
2023-03-26T07:35:34.807Z,999.37
2023-03-26T07:36:34.799Z,999.35
2023-03-26T07:37:34.779Z,999.35
2023-03-26T07:38:34.801Z,999.34
2023-03-26T07:39:34.755Z,999.37
2023-03-26T07:40:34.734Z,999.36
2023-03-26T07:41:34.745Z,999.39
2023-03-26T07:42:34.712Z,999.38
2023-03-26T07:43:34.696Z,999.42
2023-03-26T07:44:35.808Z,999.36
2023-03-26T07:45:34.712Z,999.40
2023-03-26T07:46:34.688Z,999.40
2023-03-26T07:47:34.731Z,999.42
2023-03-26T07:48:34.671Z,999.39
2023-03-26T07:49:34.636Z,999.42
2023-03-26T07:50:34.625Z,999.40
2023-03-26T07:51:34.640Z,999.46
2023-03-26T07:52:34.621Z,999.45
2023-03-26T07:53:34.592Z,999.45
2023-03-26T07:54:34.586Z,999.38
2023-03-26T07:55:34.577Z,999.44
2023-03-26T07:56:34.736Z,999.42
2023-03-26T07:57:34.640Z,999.42
2023-03-26T07:58:34.533Z,999.45
2023-03-26T07:59:34.531Z,999.42
2023-03-26T08:00:34.526Z,999.44
2023-03-26T08:01:34.514Z,999.41
2023-03-26T08:02:34.567Z,999.43
2023-03-26T08:03:34.649Z,999.47
2023-03-26T08:04:34.550Z,999.40
2023-03-26T08:05:34.469Z,999.43
2023-03-26T08:06:34.446Z,999.44
2023-03-26T08:07:34.461Z,999.46
2023-03-26T08:08:34.432Z,999.45
2023-03-26T08:09:34.421Z,999.48
2023-03-26T08:10:34.400Z,999.43
2023-03-26T08:11:34.399Z,999.50
2023-03-26T08:12:34.419Z,999.43
2023-03-26T08:13:34.466Z,999.44
2023-03-26T08:14:34.358Z,999.38
2023-03-26T08:15:34.430Z,999.42
2023-03-26T08:16:34.347Z,999.31
2023-03-26T08:17:34.372Z,999.43
2023-03-26T08:18:34.312Z,999.44
2023-03-26T08:19:34.303Z,999.46
2023-03-26T08:20:34.364Z,999.48
2023-03-26T08:21:34.289Z,999.42
2023-03-26T08:22:34.321Z,999.43
2023-03-26T08:23:34.265Z,999.36
2023-03-26T08:24:34.272Z,999.38
2023-03-26T08:25:34.824Z,999.43
2023-03-26T08:26:34.230Z,999.40
2023-03-26T08:27:34.227Z,999.39
2023-03-26T08:28:34.224Z,999.41
2023-03-26T08:29:34.218Z,999.41
2023-03-26T08:30:34.185Z,999.40
2023-03-26T08:31:34.193Z,999.37
2023-03-26T08:32:34.190Z,999.38
2023-03-26T08:33:35.474Z,999.36
2023-03-26T08:34:34.165Z,999.42
2023-03-26T08:35:34.198Z,999.38
2023-03-26T08:36:34.147Z,999.39
2023-03-26T08:37:34.121Z,999.41
2023-03-26T08:38:34.113Z,999.39
2023-03-26T08:39:34.117Z,999.45
2023-03-26T08:40:34.089Z,999.44
2023-03-26T08:41:34.068Z,999.32
2023-03-26T08:42:34.062Z,999.43
2023-03-26T08:43:34.044Z,999.40
2023-03-26T08:44:34.053Z,999.38
2023-03-26T08:45:34.021Z,999.46
2023-03-26T08:46:34.118Z,999.39
2023-03-26T08:47:34.025Z,999.41
2023-03-26T08:48:34.002Z,999.34
2023-03-26T08:49:34.006Z,999.41
2023-03-26T08:50:33.992Z,999.34
2023-03-26T08:51:33.961Z,999.35
2023-03-26T08:52:33.985Z,999.31
2023-03-26T08:53:33.950Z,999.39
2023-03-26T08:54:33.924Z,999.34
2023-03-26T08:55:33.932Z,999.39
2023-03-26T08:56:33.914Z,999.34
2023-03-26T08:57:33.898Z,999.37
2023-03-26T08:58:33.883Z,999.40
2023-03-26T08:59:33.876Z,999.34
2023-03-26T09:00:33.904Z,999.37
2023-03-26T09:01:33.872Z,999.35
2023-03-26T09:02:33.861Z,999.30
2023-03-26T09:03:33.873Z,999.36
2023-03-26T09:04:33.813Z,999.32
2023-03-26T09:05:33.857Z,999.34
2023-03-26T09:06:33.789Z,999.30
2023-03-26T09:07:33.800Z,999.32
2023-03-26T09:08:33.813Z,999.27
2023-03-26T09:09:33.774Z,999.32
2023-03-26T09:10:33.778Z,999.37
2023-03-26T09:11:33.742Z,999.33
2023-03-26T09:12:33.731Z,999.24
2023-03-26T09:13:33.718Z,999.34
2023-03-26T09:14:33.708Z,999.31
2023-03-26T09:15:33.810Z,999.35
2023-03-26T09:16:33.733Z,999.34
2023-03-26T09:17:33.698Z,999.30
2023-03-26T09:18:33.664Z,999.42
2023-03-26T09:19:33.656Z,999.32
2023-03-26T09:20:33.668Z,999.37
2023-03-26T09:21:33.634Z,999.35
2023-03-26T09:22:33.649Z,999.32
2023-03-26T09:23:33.619Z,999.34
2023-03-26T09:24:33.627Z,999.38
2023-03-26T09:25:33.615Z,999.39
2023-03-26T09:26:33.584Z,999.42
2023-03-26T09:27:33.569Z,999.43
2023-03-26T09:28:33.564Z,999.45
2023-03-26T09:29:33.555Z,999.46
2023-03-26T09:30:33.580Z,999.49
2023-03-26T09:31:33.598Z,999.50
2023-03-26T09:32:33.582Z,999.51
2023-03-26T09:33:33.504Z,999.42
2023-03-26T09:34:33.504Z,999.41
2023-03-26T09:35:33.508Z,999.41
2023-03-26T09:36:33.490Z,999.41
2023-03-26T09:37:33.468Z,999.41
2023-03-26T09:38:33.455Z,999.37
2023-03-26T09:39:33.443Z,999.39
2023-03-26T09:40:33.466Z,999.39
2023-03-26T09:41:33.445Z,999.44
2023-03-26T09:42:33.427Z,999.41
2023-03-26T09:43:33.407Z,999.38
2023-03-26T09:44:33.385Z,999.41
2023-03-26T09:45:33.419Z,999.37
2023-03-26T09:46:33.368Z,999.46
2023-03-26T09:47:33.437Z,999.44
2023-03-26T09:48:33.345Z,999.45
2023-03-26T09:49:33.342Z,999.43
2023-03-26T09:50:33.319Z,999.38
2023-03-26T09:51:33.310Z,999.39
2023-03-26T09:52:33.322Z,999.41
2023-03-26T09:53:33.298Z,999.41
2023-03-26T09:54:33.301Z,999.48
2023-03-26T09:55:33.274Z,999.42
2023-03-26T09:56:33.355Z,999.45
2023-03-26T09:57:33.303Z,999.48
2023-03-26T09:58:33.240Z,999.46
2023-03-26T09:59:33.220Z,999.48
2023-03-26T10:00:33.219Z,999.46
2023-03-26T10:01:33.257Z,999.48
2023-03-26T10:02:46.501Z,999.48
2023-03-26T10:03:34.180Z,999.50
2023-03-26T10:04:33.258Z,999.47
2023-03-26T10:05:33.186Z,999.44
2023-03-26T10:06:33.149Z,999.46
2023-03-26T10:07:33.138Z,999.46
2023-03-26T10:08:33.147Z,999.51
2023-03-26T10:09:33.116Z,999.51
2023-03-26T10:10:33.130Z,999.50
2023-03-26T10:11:33.098Z,999.49
2023-03-26T10:12:33.101Z,999.51
2023-03-26T10:13:33.074Z,999.45
2023-03-26T10:14:33.082Z,999.46
2023-03-26T10:15:33.053Z,999.46
2023-03-26T10:16:33.117Z,999.44
2023-03-26T10:17:33.054Z,999.50
2023-03-26T10:18:33.067Z,999.48
2023-03-26T10:19:33.029Z,999.41
2023-03-26T10:20:32.998Z,999.44
2023-03-26T10:21:32.985Z,999.40
2023-03-26T10:22:32.970Z,999.37
2023-03-26T10:23:32.964Z,999.34
2023-03-26T10:24:32.974Z,999.40
2023-03-26T10:25:33.490Z,999.29
2023-03-26T10:26:32.928Z,999.37
2023-03-26T10:27:32.920Z,999.31
2023-03-26T10:28:32.920Z,999.36
2023-03-26T10:29:32.927Z,999.37
2023-03-26T10:30:32.929Z,999.38
2023-03-26T10:31:32.883Z,999.34
2023-03-26T10:32:32.891Z,999.35
2023-03-26T10:33:32.853Z,999.34
2023-03-26T10:34:32.904Z,999.31
2023-03-26T10:35:32.867Z,999.34
2023-03-26T10:36:32.831Z,999.42
2023-03-26T10:37:32.820Z,999.36
2023-03-26T10:38:32.792Z,999.31
2023-03-26T10:39:37.022Z,999.35
2023-03-26T10:40:32.801Z,999.41
2023-03-26T10:41:32.762Z,999.37
2023-03-26T10:42:32.758Z,999.37
2023-03-26T10:43:32.740Z,999.37
2023-03-26T10:44:32.807Z,999.35
2023-03-26T10:45:32.760Z,999.32
2023-03-26T10:46:32.743Z,999.39
2023-03-26T10:47:32.745Z,999.37
2023-03-26T10:48:32.684Z,999.33
2023-03-26T10:49:32.676Z,999.37
2023-03-26T10:50:32.683Z,999.41
2023-03-26T10:51:32.656Z,999.36
2023-03-26T10:52:32.639Z,999.41
2023-03-26T10:53:32.644Z,999.41
2023-03-26T10:54:32.618Z,999.42
2023-03-26T10:55:32.634Z,999.46
2023-03-26T10:56:32.698Z,999.37
2023-03-26T10:57:32.614Z,999.42
2023-03-26T10:58:49.244Z,999.41
2023-03-26T10:59:32.574Z,999.41
2023-03-26T11:00:32.575Z,999.38
2023-03-26T11:01:32.603Z,999.38
2023-03-26T11:02:32.555Z,999.33
2023-03-26T11:03:32.534Z,999.34
2023-03-26T11:04:32.518Z,999.35
2023-03-26T11:05:32.557Z,999.44
2023-03-26T11:06:32.490Z,999.36
2023-03-26T11:07:32.505Z,999.36
2023-03-26T11:08:32.986Z,999.39
2023-03-26T11:09:32.464Z,999.33
2023-03-26T11:10:32.475Z,999.34
2023-03-26T11:11:32.444Z,999.33
2023-03-26T11:12:32.446Z,999.29
2023-03-26T11:13:32.425Z,999.33
2023-03-26T11:14:35.150Z,999.35
2023-03-26T11:15:32.421Z,999.29
2023-03-26T11:16:32.422Z,999.28
2023-03-26T11:17:40.414Z,999.24
2023-03-26T11:18:32.362Z,999.35
2023-03-26T11:19:32.353Z,999.29
2023-03-26T11:20:32.343Z,999.34
2023-03-26T11:21:32.340Z,999.32
2023-03-26T11:22:32.348Z,999.30
2023-03-26T11:23:32.313Z,999.27
2023-03-26T11:24:32.311Z,999.25
2023-03-26T11:25:32.312Z,999.29
2023-03-26T11:26:32.283Z,999.22
2023-03-26T11:27:32.311Z,999.23
2023-03-26T11:28:32.259Z,999.27
2023-03-26T11:29:33.573Z,999.23
2023-03-26T11:30:32.240Z,999.24
2023-03-26T11:31:32.326Z,999.19
2023-03-26T11:32:32.267Z,999.22
2023-03-26T11:33:32.898Z,999.12
2023-03-26T11:34:32.226Z,999.16
2023-03-26T11:35:40.718Z,999.14
2023-03-26T11:36:33.172Z,999.15
2023-03-26T11:37:32.154Z,999.14
2023-03-26T11:38:32.149Z,999.09
2023-03-26T11:39:32.160Z,999.16
2023-03-26T11:40:32.170Z,999.06
2023-03-26T11:41:32.131Z,999.04
2023-03-26T11:42:32.114Z,999.04
2023-03-26T11:43:32.104Z,999.09
2023-03-26T11:44:32.125Z,999.02
2023-03-26T11:45:32.075Z,999.02
2023-03-26T11:46:33.609Z,999.09
2023-03-26T11:47:32.127Z,999.07
2023-03-26T11:48:32.103Z,999.04
2023-03-26T11:49:32.029Z,999.09
2023-03-26T11:50:32.024Z,999.08
2023-03-26T11:51:32.025Z,999.00
2023-03-26T11:52:32.004Z,999.05
2023-03-26T11:53:32.022Z,998.99
2023-03-26T11:54:31.982Z,998.94
2023-03-26T11:55:31.961Z,998.96
2023-03-26T11:56:32.056Z,999.07
2023-03-26T11:57:31.974Z,999.06
2023-03-26T11:58:31.933Z,999.03
2023-03-26T11:59:33.851Z,999.01
2023-03-26T12:00:31.902Z,999.05
2023-03-26T12:01:31.890Z,998.96
2023-03-26T12:02:31.972Z,998.98
2023-03-26T12:03:31.885Z,998.98
2023-03-26T12:04:32.040Z,998.95
2023-03-26T12:05:31.844Z,998.94
2023-03-26T12:06:31.830Z,998.90
2023-03-26T12:07:31.848Z,998.97
2023-03-26T12:08:31.825Z,999.03
2023-03-26T12:09:31.808Z,998.99
2023-03-26T12:10:31.799Z,998.95
2023-03-26T12:11:34.613Z,999.03
2023-03-26T12:12:31.790Z,998.95
2023-03-26T12:13:31.754Z,998.83
2023-03-26T12:14:31.753Z,998.90
2023-03-26T12:15:31.733Z,998.90
2023-03-26T12:16:31.777Z,998.81
2023-03-26T12:17:31.948Z,998.83
2023-03-26T12:18:31.709Z,998.76
2023-03-26T12:19:31.728Z,998.84
2023-03-26T12:20:31.724Z,998.77
2023-03-26T12:21:31.671Z,998.70
2023-03-26T12:22:31.684Z,998.71
2023-03-26T12:23:31.653Z,998.63
2023-03-26T12:24:31.703Z,998.82
2023-03-26T12:25:31.631Z,998.68
2023-03-26T12:26:31.627Z,998.72
2023-03-26T12:27:31.604Z,998.64
2023-03-26T12:28:31.609Z,998.66